Time;durP1;ratioP1;P1;durP2;ratioP2;P2;SDS_P1;SDS_P2;PMS_P1;PMS_P2;Temp;Humidity;BMP_temperature;BMP_pressure;BME280_temperature;BME280_humidity;BME280_pressure;Samples;Min_cycle;Max_cycle;Signal;HPM_P1;HPM_P2
2021/05/14 00:00:20;;;;;;;2.35;2.03;;;9.60;99.90;;;10.49;91.51;97121.69;5191209;28;20305;-80
2021/05/14 00:02:53;;;;;;;2.03;1.93;;;9.60;99.90;;;10.36;90.96;97120.28;5192512;28;20225;-80
2021/05/14 00:05:26;;;;;;;2.97;2.20;;;9.50;99.90;;;10.29;91.89;97114.00;5198968;28;20213;-80
2021/05/14 00:07:59;;;;;;;2.10;2.00;;;9.50;99.90;;;10.33;91.84;97123.56;5196579;28;20233;-78
2021/05/14 00:10:34;;;;;;;2.00;1.90;;;9.50;99.90;;;10.32;92.53;97124.34;5190481;28;20203;-79
2021/05/14 00:13:09;;;;;;;2.33;2.20;;;9.50;99.90;;;10.29;91.36;97121.66;5191530;28;20214;-80
2021/05/14 00:15:42;;;;;;;2.20;2.00;;;9.40;99.90;;;10.24;90.57;97117.09;5191179;28;20233;-79
2021/05/14 00:18:14;;;;;;;2.80;1.97;;;9.30;99.90;;;10.18;91.62;97115.13;5184088;28;20222;-79
2021/05/14 00:20:47;;;;;;;2.03;1.90;;;9.30;99.90;;;10.19;90.90;97111.81;5190929;28;20597;-80
2021/05/14 00:23:21;;;;;;;2.30;2.20;;;9.30;99.90;;;10.18;91.42;97114.28;5192647;28;20230;-79
2021/05/14 00:25:53;;;;;;;2.33;2.20;;;9.30;99.90;;;10.17;90.97;97113.41;5182979;28;20241;-80
2021/05/14 00:28:26;;;;;;;2.13;2.03;;;9.30;99.90;;;10.12;91.60;97109.75;5192858;28;20238;-80
2021/05/14 00:30:59;;;;;;;2.30;2.20;;;9.30;99.90;;;10.14;91.36;97113.25;5190270;28;20226;-79
2021/05/14 00:33:31;;;;;;;2.50;2.40;;;9.30;99.90;;;10.12;91.10;97114.84;5191878;28;20225;-77
2021/05/14 00:36:06;;;;;;;2.33;2.23;;;9.20;99.90;;;10.14;90.88;97113.25;5196171;28;20203;-77
2021/05/14 00:38:39;;;;;;;2.73;2.40;;;9.20;99.90;;;10.14;91.69;97114.13;5193919;28;20194;-77
2021/05/14 00:41:12;;;;;;;2.50;2.30;;;9.30;99.90;;;10.09;92.02;97117.28;5193443;28;20258;-77
2021/05/14 00:43:44;;;;;;;2.53;2.33;;;9.20;99.90;;;10.10;92.03;97116.47;5191146;28;20329;-78
2021/05/14 00:46:17;;;;;;;2.30;2.20;;;9.30;99.90;;;10.12;91.75;97115.72;5191895;28;20203;-77
2021/05/14 00:48:50;;;;;;;2.80;2.70;;;9.30;99.90;;;10.09;90.98;97110.47;5191755;28;20233;-78
2021/05/14 00:51:22;;;;;;;1.97;1.87;;;9.20;99.90;;;10.06;90.99;97114.56;5197314;28;20204;-78
2021/05/14 00:53:56;;;;;;;2.30;2.20;;;9.20;99.90;;;10.04;91.19;97117.03;5191476;28;20629;-77
2021/05/14 00:56:28;;;;;;;2.33;2.13;;;9.20;99.90;;;10.00;91.22;97119.41;5194744;28;20202;-78
2021/05/14 00:59:01;;;;;;;2.00;1.90;;;9.20;99.90;;;10.02;92.09;97116.13;5194119;28;21547;-77
2021/05/14 01:01:34;;;;;;;3.90;2.60;;;9.20;99.90;;;10.03;92.24;97111.88;5192075;28;20233;-77
2021/05/14 01:04:07;;;;;;;2.00;1.90;;;9.20;99.90;;;9.93;91.10;97116.56;5193587;28;20302;-77
2021/05/14 01:06:39;;;;;;;2.40;2.20;;;9.10;99.90;;;9.89;91.75;97119.75;5200533;28;20214;-77
2021/05/14 01:09:14;;;;;;;2.63;2.50;;;9.10;99.90;;;9.89;91.95;97124.84;5190336;28;20242;-77
2021/05/14 01:11:47;;;;;;;2.70;2.20;;;9.00;99.90;;;9.82;90.92;97119.41;5199468;28;20576;-77
2021/05/14 01:14:20;;;;;;;2.67;2.43;;;8.90;99.90;;;9.81;90.56;97115.97;5193736;28;20318;-78
2021/05/14 01:16:52;;;;;;;2.53;2.40;;;9.00;99.90;;;9.84;91.34;97113.59;5191240;28;20642;-77
2021/05/14 01:19:25;;;;;;;2.50;2.40;;;9.00;99.90;;;9.85;91.86;97114.44;5191882;28;20270;-77
2021/05/14 01:21:59;;;;;;;2.17;2.07;;;9.00;99.90;;;9.89;90.36;97114.66;5195588;28;20289;-77
2021/05/14 01:24:32;;;;;;;2.83;2.30;;;9.00;99.90;;;9.92;91.44;97111.38;5196470;28;20201;-78
2021/05/14 01:27:05;;;;;;;2.30;2.20;;;9.00;99.90;;;9.88;91.44;97109.50;5193653;28;20237;-78
2021/05/14 01:29:38;;;;;;;2.83;2.63;;;9.00;99.90;;;9.65;90.03;97111.81;5194145;28;20241;-77
2021/05/14 01:32:10;;;;;;;2.40;2.30;;;8.80;99.90;;;9.65;91.74;97108.38;5190794;28;20309;-77
2021/05/14 01:34:44;;;;;;;2.60;2.40;;;8.90;99.90;;;9.70;91.17;97107.81;5191948;28;20276;-78
2021/05/14 01:37:17;;;;;;;2.83;2.50;;;8.90;99.90;;;9.68;91.90;97101.75;5190701;28;20230;-78
2021/05/14 01:39:50;;;;;;;2.40;2.30;;;9.00;99.90;;;9.71;91.65;97101.03;5190339;28;20266;-78
2021/05/14 01:42:22;;;;;;;2.40;2.30;;;8.90;99.90;;;9.74;91.02;97106.28;5190623;28;20258;-77
2021/05/14 01:44:55;;;;;;;2.00;1.90;;;8.90;99.90;;;9.74;91.58;97111.38;5190496;28;20635;-77
2021/05/14 01:47:28;;;;;;;2.20;2.10;;;9.00;99.90;;;9.75;91.49;97114.81;5190399;28;20237;-78
2021/05/14 01:50:01;;;;;;;2.20;2.10;;;8.90;99.90;;;9.74;91.64;97106.28;5189648;28;20226;-78
2021/05/14 01:52:35;;;;;;;3.10;2.60;;;8.90;99.90;;;9.70;91.05;97110.38;5192106;28;20257;-78
2021/05/14 01:55:08;;;;;;;2.57;2.37;;;8.90;99.90;;;9.60;91.56;97104.75;5189240;28;20286;-77
2021/05/14 01:57:41;;;;;;;2.20;2.10;;;8.80;99.90;;;9.61;91.59;97099.69;5191725;28;20285;-78
2021/05/14 02:00:16;;;;;;;2.63;2.30;;;8.80;99.90;;;9.67;90.91;97106.75;5185169;28;20213;-78
2021/05/14 02:02:49;;;;;;;2.57;2.37;;;8.70;99.90;;;9.60;90.76;97103.06;5191350;28;20265;-77
2021/05/14 02:05:21;;;;;;;2.50;2.40;;;8.80;99.90;;;9.56;91.07;97095.19;5189933;28;20230;-78
2021/05/14 02:07:55;;;;;;;2.27;2.17;;;8.80;99.90;;;9.50;91.17;97099.97;5190706;28;20234;-78
2021/05/14 02:10:28;;;;;;;2.90;2.33;;;8.70;99.90;;;9.46;92.00;97102.38;5189924;28;20202;-79
2021/05/14 02:13:00;;;;;;;2.30;2.20;;;8.70;99.90;;;9.47;91.58;97098.16;5190069;28;20217;-78
2021/05/14 02:15:33;;;;;;;3.07;2.50;;;8.60;99.90;;;9.48;91.26;97099.91;5189782;28;20238;-78
2021/05/14 02:18:05;;;;;;;2.47;2.37;;;8.60;99.90;;;9.41;91.23;97102.94;5191086;28;20222;-77
2021/05/14 02:20:38;;;;;;;2.63;2.53;;;8.50;99.90;;;9.37;90.52;97108.72;5190237;28;20294;-78
2021/05/14 02:23:12;;;;;;;2.73;2.53;;;8.40;99.90;;;9.30;91.00;97102.44;5188824;28;20238;-78
2021/05/14 02:25:44;;;;;;;2.13;2.03;;;8.40;99.90;;;9.26;91.22;97110.72;5189158;28;20213;-79
2021/05/14 02:28:17;;;;;;;2.97;2.30;;;8.40;99.90;;;9.25;90.62;97109.00;5191818;28;20290;-78
2021/05/14 02:30:50;;;;;;;2.67;2.47;;;8.40;99.90;;;9.18;90.57;97102.69;5190404;28;20289;-78
2021/05/14 02:33:22;;;;;;;2.57;2.47;;;8.30;99.90;;;9.17;90.46;97100.94;5190668;28;20214;-77
2021/05/14 02:35:55;;;;;;;2.43;2.23;;;8.30;99.90;;;9.18;90.89;97106.91;5190776;28;20244;-78
2021/05/14 02:38:28;;;;;;;2.60;2.50;;;8.30;99.90;;;9.17;91.11;97107.72;5189077;28;20234;-78
2021/05/14 02:41:04;;;;;;;2.60;2.50;;;8.30;99.90;;;9.17;90.21;97116.25;5189630;28;20199;-77
2021/05/14 02:43:37;;;;;;;2.33;2.13;;;8.30;99.90;;;9.28;90.40;97113.38;5179435;28;20269;-77
2021/05/14 02:46:10;;;;;;;2.40;2.30;;;8.30;99.90;;;9.24;89.85;97103.03;5192707;28;20267;-78
2021/05/14 02:48:43;;;;;;;2.63;2.43;;;8.40;99.90;;;9.21;91.19;97112.16;5189328;28;20230;-77
2021/05/14 02:51:15;;;;;;;2.73;2.53;;;8.40;99.90;;;9.22;90.50;97114.81;5190732;28;20226;-78
2021/05/14 02:53:49;;;;;;;3.63;2.60;;;8.40;99.90;;;9.21;90.55;97107.97;5188997;28;20301;-77
2021/05/14 02:56:21;;;;;;;3.70;2.37;;;8.40;99.90;;;9.20;90.59;97103.66;5190058;28;20222;-78
2021/05/14 02:58:54;;;;;;;2.87;2.67;;;8.40;99.90;;;9.22;91.13;97106.28;5192860;28;20250;-78
2021/05/14 03:01:27;;;;;;;2.37;2.27;;;8.40;99.90;;;9.23;91.12;97108.03;5190858;28;20198;-77
2021/05/14 03:03:59;;;;;;;2.50;2.40;;;8.50;99.90;;;9.27;90.47;97107.41;5197730;28;20638;-77
2021/05/14 03:06:33;;;;;;;2.13;2.03;;;8.40;99.90;;;9.25;90.66;97106.44;5193158;28;20234;-78
2021/05/14 03:09:06;;;;;;;3.00;2.80;;;8.40;99.90;;;9.23;90.80;97113.13;5193901;28;20265;-78
2021/05/14 03:11:39;;;;;;;2.70;2.37;;;8.40;99.90;;;9.21;90.32;97109.63;5198023;28;20245;-77
2021/05/14 03:14:12;;;;;;;2.67;2.57;;;8.40;99.90;;;9.16;89.95;97118.72;5196088;28;20280;-78
2021/05/14 03:16:44;;;;;;;2.50;2.30;;;8.30;99.90;;;9.09;90.34;97109.00;5195829;28;20234;-78
2021/05/14 03:19:17;;;;;;;2.37;2.27;;;8.30;99.90;;;8.91;89.66;97111.50;5202247;28;20202;-78
2021/05/14 03:21:50;;;;;;;2.30;2.20;;;8.10;99.90;;;8.93;90.16;97110.78;5193080;28;20648;-77
2021/05/14 03:24:24;;;;;;;2.77;2.60;;;8.00;99.90;;;8.92;90.57;97114.13;5200313;28;20310;-78
2021/05/14 03:26:56;;;;;;;2.77;2.47;;;8.10;99.90;;;8.94;90.11;97117.63;5197469;28;20270;-77
2021/05/14 03:29:29;;;;;;;2.70;2.60;;;8.10;99.90;;;8.89;89.66;97113.97;5194548;28;20218;-78
2021/05/14 03:32:03;;;;;;;2.63;2.53;;;8.10;99.90;;;8.91;89.95;97114.94;5196608;28;20250;-78
2021/05/14 03:34:37;;;;;;;2.67;2.47;;;8.10;99.90;;;8.86;90.26;97113.81;5193176;28;20249;-78
2021/05/14 03:37:10;;;;;;;3.03;2.83;;;8.10;99.90;;;8.86;90.24;97115.50;5194329;28;20237;-78
2021/05/14 03:39:45;;;;;;;3.50;2.60;;;8.00;99.90;;;8.80;90.11;97118.59;5194617;28;20237;-76
2021/05/14 03:42:23;;;;;;;2.40;2.30;;;8.00;99.90;;;8.80;89.83;97113.50;5194899;28;20253;-78
2021/05/14 03:44:56;;;;;;;2.50;2.40;;;8.00;99.90;;;8.77;90.16;97114.22;5194767;28;20207;-77
2021/05/14 03:47:29;;;;;;;2.60;2.40;;;8.00;99.90;;;8.72;90.22;97114.78;5201939;28;20654;-78
2021/05/14 03:50:02;;;;;;;2.47;2.27;;;7.90;99.90;;;8.69;90.71;97110.38;5194112;28;20206;-78
2021/05/14 03:52:36;;;;;;;2.40;2.30;;;7.90;99.90;;;8.64;89.81;97116.03;5195142;28;20664;-79
2021/05/14 03:55:10;;;;;;;2.70;2.50;;;7.80;99.90;;;8.61;89.92;97113.34;5191879;28;20234;-77
2021/05/14 03:57:43;;;;;;;2.80;2.60;;;7.80;99.90;;;8.59;90.17;97123.47;5197492;28;20244;-78
2021/05/14 04:00:17;;;;;;;2.63;2.53;;;7.80;99.90;;;8.59;90.40;97120.03;5198807;28;20541;-77
2021/05/14 04:02:51;;;;;;;2.63;2.53;;;7.80;99.90;;;8.59;89.90;97120.03;5201820;28;20305;-78
2021/05/14 04:05:25;;;;;;;2.80;2.70;;;7.70;99.90;;;8.50;89.67;97118.75;5199973;28;20193;-78
2021/05/14 04:07:57;;;;;;;3.40;3.10;;;7.70;99.90;;;8.54;90.00;97124.88;5199082;28;20238;-78
2021/05/14 04:10:46;;;;;;;2.90;2.80;;;7.70;99.90;;;8.51;89.93;97115.41;5194095;28;20225;-77
2021/05/14 04:16:12;;;;;;;3.00;2.70;;;7.60;99.90;;;8.47;90.17;97115.16;5195155;28;20213;-78
2021/05/14 04:18:45;;;;;;;2.90;2.70;;;7.60;99.90;;;8.43;89.94;97109.03;5192110;28;20293;-77
2021/05/14 04:21:17;;;;;;;2.83;2.60;;;7.60;99.90;;;8.52;90.16;97121.38;5192554;28;20855;-79
2021/05/14 04:23:50;;;;;;;3.10;2.90;;;7.70;99.90;;;8.57;89.54;97109.75;5193588;28;20261;-79
2021/05/14 04:26:23;;;;;;;3.40;3.10;;;7.70;99.90;;;8.55;89.42;97117.31;5192357;28;20290;-80
2021/05/14 04:28:56;;;;;;;2.90;2.80;;;7.70;99.90;;;8.60;90.06;97114.13;5194679;28;20233;-79
2021/05/14 04:31:29;;;;;;;2.50;2.40;;;7.80;99.90;;;8.57;89.56;97118.25;5201994;28;20191;-80
2021/05/14 04:34:02;;;;;;;3.03;2.60;;;7.70;99.90;;;8.57;89.42;97123.34;5194521;28;20253;-78
2021/05/14 04:36:34;;;;;;;2.93;2.77;;;7.80;99.90;;;8.64;89.12;97116.03;5190936;28;20234;-79
2021/05/14 04:39:09;;;;;;;2.90;2.70;;;7.70;99.90;;;8.59;88.16;97117.50;5190918;28;20658;-78
2021/05/14 04:41:42;;;;;;;3.30;3.10;;;7.70;99.90;;;8.54;88.45;97122.34;5190553;28;20226;-78
2021/05/14 04:44:16;;;;;;;3.00;2.80;;;7.70;99.90;;;8.48;88.46;97114.38;5191720;28;20297;-79
2021/05/14 04:46:48;;;;;;;3.60;3.30;;;7.60;99.90;;;8.50;88.87;97113.66;5197203;28;20201;-78
2021/05/14 04:49:21;;;;;;;3.40;3.20;;;7.70;99.90;;;8.53;89.21;97107.84;5191947;28;20206;-78
2021/05/14 04:51:54;;;;;;;3.07;2.83;;;7.70;99.90;;;8.59;89.13;97109.84;5191693;28;20250;-81
2021/05/14 04:54:27;;;;;;;3.10;2.90;;;7.80;99.90;;;8.62;88.75;97107.47;5193340;28;20201;-78
2021/05/14 04:57:00;;;;;;;4.30;2.90;;;7.70;99.90;;;8.71;88.57;97105.38;5192271;28;20197;-78
2021/05/14 04:59:33;;;;;;;3.50;3.07;;;7.80;99.90;;;8.80;88.79;97103.31;5193834;28;20655;-77
2021/05/14 05:02:07;;;;;;;3.40;3.20;;;7.90;99.90;;;8.99;88.48;97106.00;5192818;28;20215;-78
2021/05/14 05:04:41;;;;;;;3.27;3.07;;;8.00;99.90;;;9.18;87.48;97109.47;5194174;28;20219;-78
2021/05/14 05:07:13;;;;;;;3.40;3.20;;;8.20;99.90;;;9.35;86.83;97116.28;5191640;28;20245;-79
2021/05/14 05:09:46;;;;;;;3.60;3.40;;;8.40;99.90;;;9.45;86.93;97117.63;5191522;28;20198;-78
2021/05/14 05:12:20;;;;;;;3.10;2.83;;;8.50;99.90;;;9.56;87.28;97115.59;5190108;28;20577;-77
2021/05/14 05:14:52;;;;;;;3.43;3.13;;;8.60;99.90;;;9.79;85.34;97115.03;5189822;28;20313;-79
2021/05/14 05:17:25;;;;;;;3.50;3.30;;;8.70;99.90;;;10.34;83.59;97117.63;5194811;28;20726;-78
2021/05/14 05:19:57;;;;;;;3.27;3.07;;;9.20;99.90;;;11.15;83.55;97117.78;5191672;28;20198;-78
2021/05/14 05:22:30;;;;;;;3.20;3.00;;;9.90;99.90;;;11.72;78.51;97112.47;5193311;28;20237;-79
2021/05/14 05:25:04;;;;;;;3.65;3.38;;;10.30;99.90;;;12.52;76.87;97110.47;5193389;28;20230;-79
2021/05/14 05:27:37;;;;;;;4.05;3.58;;;11.00;99.90;;;13.12;74.18;97116.06;5191467;28;20285;-79
2021/05/14 05:30:11;;;;;;;2.97;2.78;;;11.50;99.90;;;13.73;70.62;97110.47;5190037;28;20269;-79
2021/05/14 05:32:44;;;;;;;2.75;2.55;;;12.00;99.90;;;14.20;68.47;97117.94;5191414;28;20280;-77
2021/05/14 05:35:17;;;;;;;2.72;2.53;;;12.50;99.90;;;14.54;68.26;97116.41;5196391;28;20736;-78
2021/05/14 05:37:50;;;;;;;2.78;2.53;;;12.70;99.90;;;14.81;66.25;97119.75;5194347;28;20194;-78
2021/05/14 05:40:22;;;;;;;2.55;2.38;;;12.80;99.90;;;15.06;65.34;97117.88;5193044;28;20202;-76
2021/05/14 05:42:56;;;;;;;2.47;2.28;;;13.00;99.90;;;15.17;64.29;97124.22;5192856;28;20240;-77
2021/05/14 05:45:28;;;;;;;2.63;2.42;;;13.00;99.90;;;15.43;65.12;97124.03;5188544;28;20315;-77
2021/05/14 05:48:01;;;;;;;2.67;2.47;;;13.20;99.90;;;15.84;62.38;97129.38;5190844;28;20198;-78
2021/05/14 05:50:34;;;;;;;2.55;2.35;;;13.40;99.90;;;16.28;61.03;97125.28;5196091;28;20253;-81
2021/05/14 05:53:07;;;;;;;2.00;1.90;;;13.50;99.90;;;16.74;58.86;97122.81;5193424;28;20721;-82
2021/05/14 05:55:40;;;;;;;2.22;2.13;;;13.70;99.90;;;16.93;59.13;97124.97;5201612;28;20300;-81
2021/05/14 05:58:16;;;;;;;3.00;2.78;;;14.00;99.90;;;17.14;56.80;97127.13;5192901;28;20235;-81
2021/05/14 06:00:48;;;;;;;2.13;2.00;;;14.40;99.90;;;17.39;56.34;97127.56;5190502;28;20205;-80
2021/05/14 06:03:21;;;;;;;2.00;1.90;;;14.70;99.90;;;17.53;56.38;97124.38;5193552;28;20249;-80
2021/05/14 06:05:53;;;;;;;2.17;2.08;;;14.80;99.90;;;17.86;54.31;97131.03;5193394;28;20280;-80
2021/05/14 06:08:26;;;;;;;2.38;1.90;;;15.00;99.90;;;18.23;52.79;97126.44;5195378;28;20301;-80
2021/05/14 06:10:59;;;;;;;2.58;2.10;;;15.20;99.90;;;18.35;52.20;97125.75;5189121;28;20261;-82
2021/05/14 06:13:34;;;;;;;2.10;1.98;;;15.40;99.90;;;18.79;50.53;97133.28;5187626;28;20620;-80
2021/05/14 06:16:07;;;;;;;3.00;1.67;;;15.40;99.90;;;19.00;50.04;97127.50;5196091;28;20202;-80
2021/05/14 06:18:43;;;;;;;1.90;1.80;;;15.60;99.90;;;19.58;49.10;97128.16;5193085;28;20202;-80
2021/05/14 06:21:17;;;;;;;2.63;2.42;;;15.90;99.90;;;19.69;47.90;97128.28;5193816;28;20202;-80
2021/05/14 06:23:49;;;;;;;1.77;1.67;;;16.20;99.90;;;20.01;46.42;97132.03;5195966;28;20230;-81
2021/05/14 06:26:22;;;;;;;1.40;1.40;;;16.30;99.90;;;20.45;46.10;97136.66;5190988;28;20619;-79
2021/05/14 06:28:56;;;;;;;1.80;1.70;;;16.70;99.90;;;20.52;44.76;97137.59;5193097;28;20194;-80
2021/05/14 06:31:29;;;;;;;1.88;1.73;;;17.00;99.90;;;20.82;44.76;97141.22;5189233;28;20222;-81
2021/05/14 06:34:02;;;;;;;2.40;1.67;;;17.20;99.90;;;20.92;44.16;97146.50;5189180;28;20202;-80
2021/05/14 06:36:35;;;;;;;1.58;1.48;;;17.40;99.90;;;21.18;43.61;97144.88;5188349;28;20279;-81
2021/05/14 06:39:08;;;;;;;1.67;1.58;;;17.60;99.90;;;21.53;42.30;97142.41;5190986;28;20554;-80
2021/05/14 06:41:40;;;;;;;1.88;1.40;;;17.80;99.90;;;21.40;43.67;97146.69;5189593;28;20233;-81
2021/05/14 06:44:14;;;;;;;1.73;1.60;;;18.20;99.90;;;21.57;43.17;97145.00;5188357;28;20329;-79
2021/05/14 06:46:46;;;;;;;1.73;1.30;;;18.20;99.90;;;21.93;41.38;97139.84;5194234;28;20286;-80
2021/05/14 06:49:19;;;;;;;1.60;1.50;;;18.30;98.60;;;21.87;41.60;97132.03;5188608;28;20257;-81
2021/05/14 06:51:52;;;;;;;2.08;1.40;;;18.70;98.60;;;21.97;41.64;97136.38;5191317;28;20237;-81
2021/05/14 06:54:25;;;;;;;1.65;1.40;;;18.90;98.00;;;22.05;41.24;97137.25;5187550;28;20229;-80
2021/05/14 06:56:58;;;;;;;1.85;1.33;;;19.10;97.60;;;22.30;40.68;97132.94;5187164;28;20245;-82
2021/05/14 06:59:31;;;;;;;1.73;1.20;;;19.20;96.60;;;22.28;40.13;97134.66;5188535;28;20258;-83
2021/05/14 07:02:04;;;;;;;2.10;1.30;;;19.30;96.10;;;22.25;40.38;97137.28;5189741;28;20245;-79
2021/05/14 07:04:37;;;;;;;1.40;1.30;;;19.30;96.20;;;22.23;41.40;97141.59;5189403;28;20728;-81
2021/05/14 07:07:09;;;;;;;1.40;1.30;;;19.30;96.80;;;22.69;39.86;97144.13;5187479;28;20268;-79
2021/05/14 07:09:42;;;;;;;1.40;1.30;;;19.40;95.80;;;22.70;39.39;97149.34;5193254;28;20292;-80
2021/05/14 07:12:15;;;;;;;1.15;1.15;;;19.40;95.80;;;22.82;39.36;97145.84;5188578;28;20640;-80
2021/05/14 07:14:48;;;;;;;1.30;1.30;;;19.40;95.30;;;22.96;39.34;97150.19;5193894;28;20268;-80
2021/05/14 07:17:21;;;;;;;1.55;1.10;;;19.80;95.40;;;22.93;39.20;97156.25;5194620;28;20212;-81
2021/05/14 07:19:54;;;;;;;1.60;1.20;;;20.30;94.40;;;23.13;37.75;97151.00;5194231;28;20194;-80
2021/05/14 07:22:26;;;;;;;1.40;1.30;;;20.10;93.20;;;23.04;37.71;97144.06;5188091;28;20282;-81
2021/05/14 07:24:59;;;;;;;1.55;1.10;;;20.30;92.80;;;23.25;37.44;97150.06;5192558;28;20223;-79
2021/05/14 07:27:32;;;;;;;1.20;1.10;;;20.20;92.40;;;23.30;36.58;97143.09;5188273;28;20199;-81
2021/05/14 07:30:09;;;;;;;1.13;1.13;;;20.30;92.20;;;23.35;35.93;97134.38;5192694;28;20199;-80
2021/05/14 07:32:41;;;;;;;1.38;1.15;;;20.70;91.10;;;23.61;36.61;97136.84;5198990;28;20369;-82
2021/05/14 07:35:15;;;;;;;1.13;1.10;;;20.30;92.30;;;23.93;36.52;97141.00;5188982;28;20195;-80
2021/05/14 07:37:59;;;;;;;1.75;1.00;;;20.70;92.20;;;24.01;34.97;97138.34;5189143;28;20202;-79
2021/05/14 07:40:32;;;;;;;1.52;1.13;;;20.50;91.30;;;24.52;35.18;97146.59;5191543;28;20552;-81
2021/05/14 07:43:05;;;;;;;1.20;1.10;;;20.70;92.30;;;24.50;35.23;97141.41;5190135;28;20268;-80
2021/05/14 07:45:38;;;;;;;1.27;1.00;;;21.10;91.50;;;24.86;34.35;97149.72;5188685;28;20257;-79
2021/05/14 07:48:20;;;;;;;1.20;1.10;;;21.60;90.90;;;25.23;33.87;97130.16;5195881;28;20650;-81
2021/05/14 07:50:53;;;;;;;2.25;1.10;;;21.90;90.40;;;25.06;32.96;97140.81;5192613;28;20245;-80
2021/05/14 07:53:26;;;;;;;1.10;1.10;;;21.60;88.70;;;25.25;33.20;97139.72;5192212;28;20253;-80
2021/05/14 07:55:58;;;;;;;1.17;0.88;;;21.20;89.70;;;25.09;32.52;97132.91;5194704;28;20629;-79
2021/05/14 07:58:31;;;;;;;1.27;0.90;;;21.00;89.10;;;25.35;32.76;97135.22;5200313;28;20222;-79
2021/05/14 08:01:04;;;;;;;1.38;0.80;;;21.30;88.30;;;24.84;33.64;97137.56;5192516;28;20333;-80
2021/05/14 08:03:37;;;;;;;0.90;0.90;;;21.30;89.20;;;23.73;34.67;97135.91;5193592;28;20636;-82
2021/05/14 08:06:09;;;;;;;1.75;0.80;;;20.90;88.80;;;22.51;36.73;97146.78;5192901;28;20260;-80
2021/05/14 08:08:42;;;;;;;1.00;0.85;;;20.10;90.30;;;21.67;38.95;97145.03;5195642;28;20214;-79
2021/05/14 08:11:16;;;;;;;1.00;0.95;;;19.10;91.90;;;21.23;38.79;97151.81;5195370;28;20665;-79
2021/05/14 08:13:48;;;;;;;1.10;1.00;;;18.70;91.70;;;20.76;39.61;97146.41;5193994;28;20245;-81
2021/05/14 08:16:22;;;;;;;0.90;0.90;;;18.70;91.70;;;20.88;39.43;97146.47;5194295;28;20658;-80
2021/05/14 08:18:54;;;;;;;1.17;0.90;;;18.90;91.30;;;20.90;40.21;97148.19;5198073;28;20202;-79
2021/05/14 08:21:27;;;;;;;1.20;1.10;;;18.90;92.00;;;20.83;39.92;97148.16;5190235;28;21348;-79
2021/05/14 08:24:00;;;;;;;0.90;0.90;;;18.80;91.40;;;20.90;39.29;97150.81;5191591;28;20229;-79
2021/05/14 08:26:32;;;;;;;2.35;1.13;;;18.90;91.20;;;20.77;40.48;97148.13;5199221;28;20187;-80
2021/05/14 08:29:05;;;;;;;1.00;1.00;;;18.80;91.60;;;20.68;39.90;97144.63;5185656;28;20223;-81
2021/05/14 08:31:40;;;;;;;1.30;1.20;;;18.90;91.20;;;20.55;40.66;97140.22;5191995;28;20226;-81
2021/05/14 08:37:07;;;;;;;1.63;1.08;;;18.80;91.90;;;20.53;41.23;97136.75;2392343;22;20233;-60
2021/05/14 08:39:39;;;;;;;0.80;0.80;;;18.70;92.00;;;20.47;41.03;97139.28;5216729;22;20587;-62
2021/05/14 08:42:13;;;;;;;1.15;1.05;;;18.40;92.40;;;20.28;42.07;97145.19;5205841;28;20212;-64
2021/05/14 08:44:46;;;;;;;1.30;1.00;;;18.10;93.00;;;20.07;42.11;97138.13;5208658;28;20225;-61
2021/05/14 08:47:21;;;;;;;1.00;1.00;;;18.00;93.10;;;20.08;42.10;97139.84;5205411;28;20208;-64
2021/05/14 08:49:54;;;;;;;0.98;0.95;;;18.20;92.70;;;19.96;42.58;97135.44;5184455;28;20222;-61
2021/05/14 08:52:27;;;;;;;1.27;1.20;;;18.10;93.20;;;19.50;43.64;97145.34;5185620;28;20202;-62
2021/05/14 08:55:01;;;;;;;1.10;1.10;;;17.80;94.10;;;19.41;43.70;97145.25;5182368;28;20298;-64
2021/05/14 08:57:39;;;;;;;1.85;1.10;;;17.70;93.60;;;19.28;44.14;97146.81;5179554;28;20206;-63
2021/05/14 09:00:14;;;;;;;1.10;1.10;;;17.70;93.80;;;19.44;44.10;97151.34;5180992;28;20306;-63
2021/05/14 09:02:47;;;;;;;1.67;1.30;;;17.90;93.90;;;19.58;43.94;97148.91;5175640;28;20212;-63
2021/05/14 09:05:22;;;;;;;1.30;1.20;;;18.20;93.50;;;19.88;42.34;97150.06;5184260;28;20254;-62
2021/05/14 09:07:58;;;;;;;1.48;1.20;;;18.70;91.90;;;19.89;42.44;97149.22;5184455;28;20201;-61
2021/05/14 09:10:32;;;;;;;0.93;0.90;;;18.50;92.40;;;19.80;43.35;97148.28;5188333;28;20230;-61
2021/05/14 09:17:18;;;;;;;1.48;1.20;;;18.00;93.30;;;19.46;43.80;97140.97;5179778;28;20244;-62
2021/05/14 09:20:48;;;;;;;1.88;1.13;;;17.80;93.80;;;19.44;44.46;97147.88;5184768;28;20728;-63
2021/05/14 09:23:35;;;;;;;1.17;0.93;;;17.60;94.40;;;19.26;44.71;97151.16;5176180;28;20205;-61
2021/05/14 09:26:11;;;;;;;1.35;1.27;;;17.50;94.60;;;19.03;45.10;97151.75;5185168;28;20305;-61
2021/05/14 09:28:47;;;;;;;1.58;1.10;;;17.50;94.00;;;19.22;45.08;97158.00;5185935;28;20313;-61
2021/05/14 09:31:22;;;;;;;1.15;1.15;;;17.70;94.00;;;19.17;43.72;97154.47;5185284;28;20660;-61
2021/05/14 09:33:56;;;;;;;1.25;1.17;;;17.70;92.50;;;18.90;43.47;97152.44;5184242;28;20198;-60
2021/05/14 09:36:32;;;;;;;1.25;1.10;;;17.30;93.30;;;18.67;44.75;97155.53;5185340;28;20280;-61
2021/05/14 09:39:08;;;;;;;1.15;1.10;;;17.20;94.10;;;18.32;44.93;97159.34;5177117;28;20268;-61
2021/05/14 09:41:42;;;;;;;1.13;1.13;;;17.00;93.80;;;18.09;45.62;97156.41;5180838;28;20198;-59
2021/05/14 09:44:16;;;;;;;1.38;1.27;;;16.70;94.40;;;17.98;46.42;97151.91;5179070;28;20253;-60
2021/05/14 09:46:53;;;;;;;1.30;1.20;;;16.60;95.40;;;18.09;47.14;97151.22;5183605;28;20222;-60
2021/05/14 09:49:28;;;;;;;1.00;1.00;;;16.60;96.10;;;18.10;48.03;97155.56;5183709;28;20218;-60
2021/05/14 09:52:05;;;;;;;1.30;1.20;;;16.50;96.70;;;18.18;48.35;97153.97;5180689;28;20301;-61
2021/05/14 09:54:44;;;;;;;1.42;1.27;;;16.50;96.60;;;18.09;48.37;97151.22;5180409;28;20542;-60
2021/05/14 10:00:13;;;;;;;1.63;1.45;;;16.30;96.40;;;17.85;48.77;97157.72;5172955;28;20313;-62
2021/05/14 10:02:48;;;;;;;2.72;1.55;;;16.30;96.70;;;17.81;47.49;97155.94;5185401;28;20216;-61
2021/05/14 10:05:20;;;;;;;2.38;1.30;;;16.20;96.20;;;17.86;47.72;97151.72;5177650;28;20590;-62
2021/05/14 10:07:54;;;;;;;1.25;1.25;;;16.20;95.90;;;17.78;46.83;97150.72;5178425;28;20198;-61
2021/05/14 10:10:31;;;;;;;1.75;1.38;;;16.20;95.30;;;17.91;45.75;97137.16;5177219;28;20280;-62
2021/05/14 10:13:04;;;;;;;1.20;1.20;;;16.30;94.90;;;17.70;46.67;97145.38;5175411;28;20295;-62
2021/05/14 10:15:37;;;;;;;1.40;1.30;;;16.20;95.60;;;17.89;46.97;97140.56;5182646;28;20650;-63
2021/05/14 10:18:17;;;;;;;1.30;1.30;;;16.40;95.70;;;18.00;46.11;97139.03;5179780;28;20233;-62
2021/05/14 10:20:52;;;;;;;1.77;1.40;;;16.50;94.70;;;18.06;46.12;97140.84;5181126;28;20230;-62
2021/05/14 10:23:30;;;;;;;2.00;1.33;;;16.70;94.70;;;18.22;46.13;97137.63;5180985;28;20350;-62
2021/05/14 10:26:07;;;;;;;1.83;1.13;;;17.00;94.70;;;18.45;45.57;97144.00;5181211;28;20222;-62
2021/05/14 10:28:45;;;;;;;1.88;1.40;;;17.10;94.30;;;18.54;45.73;97143.28;5178264;28;20702;-62
2021/05/14 10:31:24;;;;;;;1.63;1.20;;;17.20;94.20;;;18.71;45.64;97140.91;5180548;28;20301;-62
2021/05/14 10:33:58;;;;;;;1.20;1.10;;;17.40;94.30;;;18.83;44.99;97137.69;5178956;28;20206;-62
2021/05/14 10:36:43;;;;;;;1.50;1.40;;;17.50;93.30;;;19.01;44.33;97134.44;5180838;28;20198;-62
2021/05/14 10:39:32;;;;;;;1.20;1.10;;;17.60;94.00;;;19.01;43.64;97129.25;5178332;28;20253;-62
2021/05/14 10:42:08;;;;;;;1.23;1.13;;;17.70;93.10;;;19.23;42.47;97131.25;5166542;28;20582;-62
2021/05/14 10:44:53;;;;;;;1.50;1.30;;;17.70;92.30;;;18.79;45.37;97130.69;5181571;28;20712;-62
2021/05/14 10:47:44;;;;;;;1.55;1.15;;;17.60;93.70;;;18.96;45.04;97126.59;5173747;28;20293;-63
2021/05/14 10:50:40;;;;;;;1.40;1.30;;;17.70;93.70;;;19.27;42.49;97129.56;5174326;28;20316;-62
2021/05/14 10:53:29;;;;;;;1.95;1.30;;;18.00;91.90;;;19.03;42.80;97128.44;5176054;28;20234;-62
2021/05/14 10:56:52;;;;;;;1.40;1.30;;;17.80;92.10;;;18.94;45.06;97117.06;5174686;28;20298;-62
2021/05/14 10:59:34;;;;;;;2.28;1.40;;;17.60;93.60;;;19.17;43.95;97125.97;5176535;28;20329;-62
2021/05/14 11:02:27;;;;;;;1.38;1.17;;;17.60;93.00;;;19.14;44.21;97128.53;5177059;28;20198;-63
2021/05/14 11:05:01;;;;;;;1.60;1.30;;;17.60;93.80;;;19.04;44.48;97121.53;5174589;28;20207;-63
2021/05/14 11:07:53;;;;;;;9.25;2.75;;;17.50;93.70;;;18.88;43.94;97116.13;5179964;28;20198;-62